createdAt,value
2018-11-20T00:01:59.253Z,31.10
2018-11-20T00:07:26.120Z,35.23
2018-11-20T00:12:48.518Z,29.53
2018-11-20T00:18:00.067Z,34.00
2018-11-20T00:23:33.239Z,30.47
2018-11-20T00:28:53.265Z,33.10
2018-11-20T00:34:09.877Z,31.17
2018-11-20T00:39:52.060Z,30.77
2018-11-20T00:45:12.719Z,30.93
2018-11-20T00:50:35.954Z,30.70
2018-11-20T00:56:34.727Z,29.90
2018-11-20T01:02:01.330Z,32.80
2018-11-20T01:07:24.130Z,30.63
2018-11-20T01:13:06.568Z,32.80
2018-11-20T01:18:48.967Z,33.67
2018-11-20T01:24:11.261Z,33.40
2018-11-20T01:29:28.869Z,29.53
2018-11-20T01:35:10.347Z,33.67
2018-11-20T01:40:37.097Z,33.83
2018-11-20T01:45:56.565Z,33.00
2018-11-20T01:51:20.632Z,32.93
2018-11-20T01:56:59.741Z,31.20
2018-11-20T02:02:26.709Z,34.77
2018-11-20T02:07:49.479Z,29.07
2018-11-20T02:14:04.197Z,34.17
2018-11-20T02:19:27.129Z,29.57
2018-11-20T02:24:55.827Z,33.53
2018-11-20T02:30:09.675Z,30.20
2018-11-20T02:35:28.965Z,32.33
2018-11-20T02:40:45.806Z,28.20
2018-11-20T02:46:12.260Z,30.57
2018-11-20T02:51:41.946Z,26.83
2018-11-20T02:57:06.537Z,29.10
2018-11-20T03:02:39.826Z,25.13
2018-11-20T03:08:06.707Z,28.13
2018-11-20T03:13:42.705Z,25.13
2018-11-20T03:19:06.997Z,24.73
2018-11-20T03:24:29.823Z,26.40
2018-11-20T03:30:38.339Z,30.30
2018-11-20T03:35:53.345Z,28.93
2018-11-20T03:41:29.532Z,31.40
2018-11-20T03:47:05.423Z,27.20
2018-11-20T03:52:35.259Z,27.43
2018-11-20T03:58:04.717Z,29.13
2018-11-20T04:03:24.365Z,29.77
2018-11-20T04:08:48.413Z,28.20
2018-11-20T04:14:10.764Z,28.73
2018-11-20T04:19:33.635Z,26.60
2018-11-20T04:24:56.483Z,27.63
2018-11-20T04:31:02.331Z,26.93
2018-11-20T04:36:33.744Z,27.53
2018-11-20T04:41:57.777Z,28.60
2018-11-20T04:47:20.419Z,27.80
2018-11-20T04:52:55.679Z,27.97
2018-11-20T04:58:34.871Z,27.23
2018-11-20T05:04:02.111Z,29.50
2018-11-20T05:09:27.761Z,28.80
2018-11-20T05:14:51.859Z,30.60
2018-11-20T05:20:18.491Z,30.77
2018-11-20T05:25:54.705Z,28.23
2018-11-20T05:31:27.847Z,28.80
2018-11-20T05:36:50.435Z,34.63
2018-11-20T05:42:17.192Z,32.27
2018-11-20T05:47:40.506Z,38.37
2018-11-20T05:53:04.581Z,34.70
2018-11-20T05:58:17.548Z,34.97
2018-11-20T06:03:53.480Z,30.67
2018-11-20T06:09:15.939Z,32.00
2018-11-20T06:14:32.763Z,32.33
2018-11-20T06:20:08.931Z,34.40
2018-11-20T06:25:31.747Z,33.40
2018-11-20T06:31:00.933Z,34.67
2018-11-20T06:36:27.661Z,33.40
2018-11-20T06:41:50.729Z,32.67
2018-11-20T06:47:33.137Z,32.20
2018-11-20T06:53:07.947Z,30.70
2018-11-20T06:58:47.131Z,31.30
2018-11-20T07:04:10.093Z,30.23
2018-11-20T07:09:32.651Z,31.50
2018-11-20T07:15:02.793Z,32.67
2018-11-20T07:20:23.989Z,32.63
2018-11-20T07:25:51.040Z,32.27
2018-11-20T07:31:18.129Z,29.97
2018-11-20T07:36:51.183Z,29.27
2018-11-20T07:42:33.281Z,29.53
2018-11-20T07:47:57.031Z,28.77
2018-11-20T07:53:18.317Z,32.23
2018-11-20T07:58:43.097Z,31.17
2018-11-20T08:04:05.997Z,27.43
2018-11-20T08:09:33.032Z,27.90
2018-11-20T08:15:11.405Z,31.20
2018-11-20T08:20:34.589Z,34.77
2018-11-20T08:26:16.695Z,31.07
2018-11-20T08:31:43.436Z,34.70
2018-11-20T08:37:13.728Z,30.00
2018-11-20T08:42:46.776Z,32.40
2018-11-20T08:48:09.074Z,33.20
2018-11-20T08:53:51.553Z,32.07
2018-11-20T08:59:11.220Z,30.10
2018-11-20T09:04:36.869Z,29.83
2018-11-20T09:10:02.616Z,29.77
2018-11-20T09:15:25.360Z,27.93
2018-11-20T09:21:04.641Z,29.60
2018-11-20T09:26:43.531Z,31.57
2018-11-20T09:32:12.715Z,32.73
2018-11-20T09:37:35.633Z,24.50
2018-11-20T09:43:05.433Z,26.77
2018-11-20T09:48:24.545Z,29.93
2018-11-20T09:53:50.072Z,26.07
2018-11-20T09:59:13.913Z,28.93
2018-11-20T10:04:46.928Z,29.13
2018-11-20T10:10:17.242Z,27.63
2018-11-20T10:15:40.060Z,26.43
2018-11-20T10:21:08.061Z,26.73
2018-11-20T10:26:40.783Z,25.57
2018-11-20T10:32:04.677Z,30.03
2018-11-20T10:37:37.756Z,26.37
2018-11-20T10:43:04.954Z,30.30
2018-11-20T10:48:28.967Z,31.23
2018-11-20T10:54:14.291Z,25.00
2018-11-20T10:59:41.303Z,26.90
2018-11-20T11:05:06.675Z,26.10
2018-11-20T11:10:39.640Z,29.13
2018-11-20T11:16:20.906Z,27.70
2018-11-20T11:27:11.064Z,29.77
2018-11-20T11:32:33.847Z,29.20
2018-11-20T11:38:10.306Z,25.53
2018-11-20T11:43:28.229Z,26.73
2018-11-20T11:48:51.169Z,24.70
2018-11-20T11:54:15.054Z,27.83
2018-11-20T11:59:37.497Z,25.63
2018-11-20T12:05:07.685Z,28.60
2018-11-20T12:10:36.275Z,24.87
2018-11-20T12:15:47.138Z,29.03
2018-11-20T12:21:13.274Z,25.73
2018-11-20T12:26:43.909Z,26.03
2018-11-20T12:32:06.377Z,28.77
2018-11-20T12:37:34.013Z,28.63
2018-11-20T12:42:57.685Z,27.77
2018-11-20T12:48:22.394Z,28.67
2018-11-20T12:53:44.525Z,27.10
2018-11-20T12:59:17.726Z,26.27
2018-11-20T13:05:01.271Z,26.43
2018-11-20T13:10:28.911Z,31.47
2018-11-20T13:15:49.396Z,28.00
2018-11-20T13:21:21.396Z,27.63
2018-11-20T13:26:48.070Z,29.77
2018-11-20T13:32:12.292Z,31.20
2018-11-20T13:37:39.291Z,32.83
2018-11-20T13:43:04.814Z,31.17
2018-11-20T13:48:21.707Z,28.67
2018-11-20T13:53:56.652Z,30.47
2018-11-20T13:59:35.953Z,27.47
2018-11-20T14:04:52.785Z,29.37
2018-11-20T14:10:15.302Z,31.90
2018-11-20T14:15:38.051Z,30.00
2018-11-20T14:21:04.975Z,29.30
2018-11-20T14:26:34.602Z,32.27
2018-11-20T14:32:10.599Z,33.80
2018-11-20T14:37:40.668Z,33.10
2018-11-20T14:43:12.478Z,34.87
2018-11-20T14:48:35.286Z,32.57
2018-11-20T14:54:02.065Z,33.27
2018-11-20T14:59:35.655Z,32.27
2018-11-20T15:05:03.616Z,36.80
2018-11-20T15:10:28.264Z,29.60
2018-11-20T15:15:49.576Z,33.17
2018-11-20T15:21:22.719Z,34.20
2018-11-20T15:26:56.361Z,27.53
2018-11-20T15:32:27.077Z,30.17
2018-11-20T15:37:49.600Z,32.40
2018-11-20T15:43:12.107Z,30.93
2018-11-20T15:48:48.146Z,31.43
2018-11-20T15:54:27.368Z,30.73
2018-11-20T15:59:59.805Z,31.63
2018-11-20T16:05:35.968Z,31.50
2018-11-20T16:11:02.894Z,32.40
2018-11-20T16:16:32.624Z,33.20
2018-11-20T16:22:12.143Z,32.17
2018-11-20T16:27:34.949Z,36.20
2018-11-20T16:33:01.610Z,32.30
2018-11-20T16:38:17.536Z,35.53
2018-11-20T16:43:40.410Z,34.70
2018-11-20T16:49:04.435Z,32.03
2018-11-20T16:54:43.586Z,35.43
2018-11-20T17:00:06.406Z,30.73
2018-11-20T17:05:22.785Z,35.23
2018-11-20T17:10:46.868Z,32.23
2018-11-20T17:16:11.671Z,32.90
2018-11-20T17:21:34.149Z,32.20
2018-11-20T17:26:57.219Z,33.43
2018-11-20T17:32:21.910Z,31.10
2018-11-20T17:37:46.058Z,32.53
2018-11-20T17:43:10.237Z,32.63
2018-11-20T17:48:46.211Z,36.63
2018-11-20T17:54:16.035Z,36.43
2018-11-20T17:59:43.429Z,32.77
2018-11-20T18:05:10.205Z,32.93
2018-11-20T18:10:25.435Z,30.30
2018-11-20T18:15:48.940Z,32.43
2018-11-20T18:21:18.533Z,32.07
2018-11-20T18:26:45.577Z,36.60
2018-11-20T18:32:16.310Z,31.97
2018-11-20T18:37:45.516Z,34.00
2018-11-20T18:43:14.152Z,35.60
2018-11-20T18:48:41.504Z,36.93
2018-11-20T18:54:15.104Z,35.93
2018-11-20T18:59:38.386Z,38.17
2018-11-20T19:05:02.950Z,36.07
2018-11-20T19:10:26.810Z,37.83
2018-11-20T19:16:10.126Z,36.73
2018-11-20T19:21:27.617Z,36.27
2018-11-20T19:27:06.232Z,39.97
2018-11-20T19:34:20.024Z,39.07
2018-11-20T19:39:48.707Z,34.47
2018-11-20T19:45:02.792Z,36.63
2018-11-20T19:50:31.854Z,34.40
2018-11-20T19:56:01.141Z,36.83
2018-11-20T20:01:33.468Z,39.80
2018-11-20T20:06:56.980Z,38.43
2018-11-20T20:12:23.414Z,36.37
2018-11-20T20:17:44.023Z,38.77
2018-11-20T20:23:13.770Z,37.60
2018-11-20T20:28:48.163Z,34.93
2018-11-20T20:34:23.507Z,38.00
2018-11-20T20:40:02.269Z,41.83
2018-11-20T20:45:27.317Z,37.60
2018-11-20T20:50:49.399Z,38.83
2018-11-20T20:56:11.255Z,37.30
2018-11-20T21:01:43.770Z,37.30
2018-11-20T21:07:09.827Z,36.60
2018-11-20T21:12:45.383Z,36.93
2018-11-20T21:18:07.675Z,35.70
2018-11-20T21:23:40.769Z,35.63
2018-11-20T21:29:03.315Z,36.83
2018-11-20T21:34:35.071Z,40.90
2018-11-20T21:40:11.031Z,36.53
2018-11-20T21:45:52.127Z,37.80
2018-11-20T21:51:18.427Z,34.37
2018-11-20T21:56:47.231Z,38.53
2018-11-20T22:02:31.621Z,37.50
2018-11-20T22:07:57.232Z,35.50
2018-11-20T22:13:39.051Z,38.40
2018-11-20T22:19:02.018Z,36.43
2018-11-20T22:24:26.309Z,36.43
2018-11-20T22:30:01.575Z,37.27
2018-11-20T22:35:23.611Z,33.90
2018-11-20T22:40:46.485Z,34.37
2018-11-20T22:46:09.648Z,36.67
2018-11-20T22:51:36.169Z,36.33
2018-11-20T22:57:02.525Z,33.70
2018-11-20T23:02:30.646Z,33.47
2018-11-20T23:07:50.885Z,38.93
2018-11-20T23:12:55.916Z,38.27
2018-11-20T23:18:00.134Z,36.23
2018-11-20T23:23:04.237Z,36.20
2018-11-20T23:28:09.035Z,34.37
2018-11-20T23:33:13.250Z,37.17
2018-11-20T23:38:17.753Z,35.43
2018-11-20T23:43:25.461Z,33.80
2018-11-20T23:48:30.318Z,39.07
2018-11-20T23:53:34.573Z,37.20
2018-11-20T23:58:38.821Z,38.27
